Terminal Aerodrome Forecast
Issued by NWS New Orleans/Baton Rouge, LA

Home | Current Version | Previous Version | Text Only | Print | Product List | Glossary On
Versions: 1 2 3 4 5 6 7 8 9 10 11 12 13 14 15 16 17 18 19 20 21 22 23 24 25 26 27 28 29 30 31 32
000
FTUS44 KLIX 101743 AAC
TAFBTR
TAF AMD
KBTR 101743Z 1018/1118 01011KT 4SM -RA BR OVC010
      TEMPO 1018/1020 2SM RA BKN008 OVC015
     FM110100 02012KT P6SM -RA OVC020
     FM110600 03011KT P6SM OVC015
     FM111600 05011KT P6SM FEW250=

USA.gov is the U.S. government's official web portal to all federal, state and local government web resources and services.